sensor_id;sensor_type;location;lat;lon;timestamp;pressure;altitude;pressure_sealevel;temperature;humidity
65175;BME280;51761;42.126;24.752;2022-09-28T00:01:43;98539.63;;;18.30;85.69
65175;BME280;51761;42.126;24.752;2022-09-28T00:04:09;98524.75;;;18.35;85.43
65175;BME280;51761;42.126;24.752;2022-09-28T00:06:35;98531.22;;;18.41;84.74
65175;BME280;51761;42.126;24.752;2022-09-28T00:09:01;98543.31;;;18.42;84.54
65175;BME280;51761;42.126;24.752;2022-09-28T00:11:27;98553.03;;;18.35;84.80
65175;BME280;51761;42.126;24.752;2022-09-28T00:13:55;98545.78;;;18.29;85.55
65175;BME280;51761;42.126;24.752;2022-09-28T00:16:27;98525.09;;;18.17;85.30
65175;BME280;51761;42.126;24.752;2022-09-28T00:18:53;98514.84;;;18.20;85.13
65175;BME280;51761;42.126;24.752;2022-09-28T00:21:22;98539.97;;;18.38;85.01
65175;BME280;51761;42.126;24.752;2022-09-28T00:23:54;98533.78;;;18.39;84.92
65175;BME280;51761;42.126;24.752;2022-09-28T00:26:48;98499.84;;;18.08;85.50
65175;BME280;51761;42.126;24.752;2022-09-28T00:29:34;98522.03;;;18.21;85.61
65175;BME280;51761;42.126;24.752;2022-09-28T00:32:11;98513.97;;;18.08;85.65
65175;BME280;51761;42.126;24.752;2022-09-28T00:34:42;98522.97;;;18.12;86.02
65175;BME280;51761;42.126;24.752;2022-09-28T00:37:12;98469.13;;;17.65;86.90
65175;BME280;51761;42.126;24.752;2022-09-28T00:39:38;98528.53;;;18.01;86.83
65175;BME280;51761;42.126;24.752;2022-09-28T00:42:25;98514.03;;;17.88;87.00
65175;BME280;51761;42.126;24.752;2022-09-28T00:44:57;98516.25;;;17.79;87.15
65175;BME280;51761;42.126;24.752;2022-09-28T00:47:30;98523.56;;;17.91;86.91
65175;BME280;51761;42.126;24.752;2022-09-28T00:50:16;98515.34;;;17.67;87.62
65175;BME280;51761;42.126;24.752;2022-09-28T00:52:52;98530.94;;;17.63;87.78
65175;BME280;51761;42.126;24.752;2022-09-28T00:55:25;98509.81;;;17.53;86.99
65175;BME280;51761;42.126;24.752;2022-09-28T00:57:57;98516.94;;;17.49;86.75
65175;BME280;51761;42.126;24.752;2022-09-28T01:00:24;98509.44;;;17.46;86.74
65175;BME280;51761;42.126;24.752;2022-09-28T01:02:50;98503.81;;;17.46;86.28
65175;BME280;51761;42.126;24.752;2022-09-28T01:05:17;98514.53;;;17.42;87.31
65175;BME280;51761;42.126;24.752;2022-09-28T01:07:44;98489.69;;;17.26;87.62
65175;BME280;51761;42.126;24.752;2022-09-28T01:10:10;98517.34;;;17.22;88.91
65175;BME280;51761;42.126;24.752;2022-09-28T01:12:37;98516.81;;;17.38;88.50
65175;BME280;51761;42.126;24.752;2022-09-28T01:15:03;98511.22;;;17.43;87.95
65175;BME280;51761;42.126;24.752;2022-09-28T01:18:11;98521.03;;;17.48;87.83
65175;BME280;51761;42.126;24.752;2022-09-28T01:20:59;98515.31;;;17.42;87.41
65175;BME280;51761;42.126;24.752;2022-09-28T01:23:31;98509.66;;;17.22;88.40
65175;BME280;51761;42.126;24.752;2022-09-28T01:29:30;98506.03;;;17.22;88.62
65175;BME280;51761;42.126;24.752;2022-09-28T01:32:12;98505.75;;;17.20;88.35
65175;BME280;51761;42.126;24.752;2022-09-28T01:37:21;98503.59;;;17.29;88.50
65175;BME280;51761;42.126;24.752;2022-09-28T01:39:50;98499.97;;;17.29;88.40
65175;BME280;51761;42.126;24.752;2022-09-28T01:42:24;98498.09;;;17.20;88.89
65175;BME280;51761;42.126;24.752;2022-09-28T01:44:55;98498.84;;;17.21;88.59
65175;BME280;51761;42.126;24.752;2022-09-28T01:47:25;98467.81;;;17.01;88.67
65175;BME280;51761;42.126;24.752;2022-09-28T01:50:04;98504.72;;;17.17;89.19
65175;BME280;51761;42.126;24.752;2022-09-28T01:52:40;98503.66;;;17.15;89.66
65175;BME280;51761;42.126;24.752;2022-09-28T01:55:18;98488.00;;;17.14;89.43
65175;BME280;51761;42.126;24.752;2022-09-28T01:57:50;98490.13;;;17.19;89.32
65175;BME280;51761;42.126;24.752;2022-09-28T02:00:19;98484.59;;;17.30;88.37
65175;BME280;51761;42.126;24.752;2022-09-28T02:02:51;98489.69;;;17.26;88.18
65175;BME280;51761;42.126;24.752;2022-09-28T02:05:23;98483.00;;;17.23;88.42
65175;BME280;51761;42.126;24.752;2022-09-28T02:08:01;98476.50;;;17.17;88.61
65175;BME280;51761;42.126;24.752;2022-09-28T02:10:34;98499.84;;;17.18;88.81
65175;BME280;51761;42.126;24.752;2022-09-28T02:13:31;98514.66;;;17.13;89.28
65175;BME280;51761;42.126;24.752;2022-09-28T02:16:03;98485.44;;;16.76;90.38
65175;BME280;51761;42.126;24.752;2022-09-28T02:18:31;98513.66;;;16.76;91.51
65175;BME280;51761;42.126;24.752;2022-09-28T02:21:26;98511.34;;;16.60;89.81
65175;BME280;51761;42.126;24.752;2022-09-28T02:24:00;98531.28;;;16.42;88.38
65175;BME280;51761;42.126;24.752;2022-09-28T02:26:31;98531.22;;;16.22;87.30
65175;BME280;51761;42.126;24.752;2022-09-28T02:28:59;98528.28;;;16.02;87.69
65175;BME280;51761;42.126;24.752;2022-09-28T02:31:25;98505.75;;;15.73;88.40
65175;BME280;51761;42.126;24.752;2022-09-28T02:33:53;98521.69;;;15.90;88.48
65175;BME280;51761;42.126;24.752;2022-09-28T02:36:20;98437.31;;;15.38;88.57
65175;BME280;51761;42.126;24.752;2022-09-28T02:38:46;98518.75;;;15.85;88.88
65175;BME280;51761;42.126;24.752;2022-09-28T03:00:17;98472.94;;;15.56;90.62
65175;BME280;51761;42.126;24.752;2022-09-28T03:02:59;98510.91;;;15.89;90.60
65175;BME280;51761;42.126;24.752;2022-09-28T03:06:09;98488.84;;;15.59;91.24
65175;BME280;51761;42.126;24.752;2022-09-28T03:08:45;98511.94;;;15.48;93.78
65175;BME280;51761;42.126;24.752;2022-09-28T03:11:17;98525.81;;;15.52;94.06
65175;BME280;51761;42.126;24.752;2022-09-28T03:13:44;98493.81;;;15.26;94.47
65175;BME280;51761;42.126;24.752;2022-09-28T03:16:13;98509.63;;;15.47;93.60
65175;BME280;51761;42.126;24.752;2022-09-28T03:18:39;98525.63;;;15.55;93.92
65175;BME280;51761;42.126;24.752;2022-09-28T03:21:06;98529.63;;;15.63;93.28
65175;BME280;51761;42.126;24.752;2022-09-28T03:23:32;98532.34;;;15.72;92.63
65175;BME280;51761;42.126;24.752;2022-09-28T03:25:57;98532.19;;;15.90;91.62
65175;BME280;51761;42.126;24.752;2022-09-28T03:28:23;98531.22;;;15.93;91.39
65175;BME280;51761;42.126;24.752;2022-09-28T03:30:50;98533.81;;;15.96;91.37
65175;BME280;51761;42.126;24.752;2022-09-28T03:33:15;98513.34;;;15.82;92.07
65175;BME280;51761;42.126;24.752;2022-09-28T03:35:41;98531.97;;;15.79;92.59
65175;BME280;51761;42.126;24.752;2022-09-28T03:38:06;98537.47;;;15.74;92.67
65175;BME280;51761;42.126;24.752;2022-09-28T03:40:32;98542.06;;;15.71;92.63
65175;BME280;51761;42.126;24.752;2022-09-28T03:42:59;98550.59;;;15.62;93.05
65175;BME280;51761;42.126;24.752;2022-09-28T03:45:24;98538.72;;;15.58;93.13
65175;BME280;51761;42.126;24.752;2022-09-28T03:47:50;98537.78;;;15.61;92.44
65175;BME280;51761;42.126;24.752;2022-09-28T03:50:16;98557.38;;;15.70;92.39
65175;BME280;51761;42.126;24.752;2022-09-28T03:52:41;98549.03;;;15.61;92.61
65175;BME280;51761;42.126;24.752;2022-09-28T03:55:07;98538.22;;;15.45;93.26
65175;BME280;51761;42.126;24.752;2022-09-28T03:57:33;98521.88;;;15.35;92.64
65175;BME280;51761;42.126;24.752;2022-09-28T03:59:58;98542.88;;;15.48;92.89
65175;BME280;51761;42.126;24.752;2022-09-28T04:02:24;98552.41;;;15.51;92.61
65175;BME280;51761;42.126;24.752;2022-09-28T04:04:49;98547.94;;;15.59;92.35
65175;BME280;51761;42.126;24.752;2022-09-28T04:07:15;98512.31;;;15.41;91.90
65175;BME280;51761;42.126;24.752;2022-09-28T04:09:40;98538.03;;;15.49;92.85
65175;BME280;51761;42.126;24.752;2022-09-28T04:12:06;98533.97;;;15.50;92.64
65175;BME280;51761;42.126;24.752;2022-09-28T04:14:31;98551.22;;;15.57;92.80
65175;BME280;51761;42.126;24.752;2022-09-28T04:16:57;98553.97;;;15.52;92.36
65175;BME280;51761;42.126;24.752;2022-09-28T04:19:22;98542.03;;;15.57;91.96
65175;BME280;51761;42.126;24.752;2022-09-28T04:21:48;98550.00;;;15.73;91.11
65175;BME280;51761;42.126;24.752;2022-09-28T04:24:15;98554.66;;;15.61;91.04
65175;BME280;51761;42.126;24.752;2022-09-28T04:26:41;98559.75;;;15.48;91.93
65175;BME280;51761;42.126;24.752;2022-09-28T04:29:09;98540.06;;;15.48;91.85
65175;BME280;51761;42.126;24.752;2022-09-28T04:31:48;98563.94;;;15.53;91.96
65175;BME280;51761;42.126;24.752;2022-09-28T04:34:15;98558.50;;;15.49;92.36
65175;BME280;51761;42.126;24.752;2022-09-28T04:36:42;98534.69;;;15.12;93.39
65175;BME280;51761;42.126;24.752;2022-09-28T04:39:12;98571.97;;;15.45;93.51
65175;BME280;51761;42.126;24.752;2022-09-28T04:41:39;98568.78;;;15.52;92.82
65175;BME280;51761;42.126;24.752;2022-09-28T04:44:05;98586.25;;;15.56;93.54
65175;BME280;51761;42.126;24.752;2022-09-28T04:46:31;98587.19;;;15.62;93.49
65175;BME280;51761;42.126;24.752;2022-09-28T04:48:56;98553.97;;;15.52;93.56
65175;BME280;51761;42.126;24.752;2022-09-28T04:51:22;98561.34;;;15.64;92.83
65175;BME280;51761;42.126;24.752;2022-09-28T04:53:48;98602.47;;;15.85;92.83
65175;BME280;51761;42.126;24.752;2022-09-28T04:56:15;98603.34;;;15.90;93.27
65175;BME280;51761;42.126;24.752;2022-09-28T04:58:41;98592.72;;;15.71;93.16
65175;BME280;51761;42.126;24.752;2022-09-28T05:01:10;98617.00;;;15.83;93.64
65175;BME280;51761;42.126;24.752;2022-09-28T05:03:37;98576.50;;;15.66;92.72
65175;BME280;51761;42.126;24.752;2022-09-28T05:06:03;98604.59;;;15.89;91.44
65175;BME280;51761;42.126;24.752;2022-09-28T05:08:29;98625.19;;;15.95;91.66
65175;BME280;51761;42.126;24.752;2022-09-28T05:10:59;98594.88;;;15.76;91.89
65175;BME280;51761;42.126;24.752;2022-09-28T05:13:25;98594.22;;;16.10;90.44
65175;BME280;51761;42.126;24.752;2022-09-28T05:15:53;98607.63;;;16.87;86.74
65175;BME280;51761;42.126;24.752;2022-09-28T05:18:19;98598.44;;;17.81;82.06
65175;BME280;51761;42.126;24.752;2022-09-28T05:20:45;98600.38;;;19.08;75.42
65175;BME280;51761;42.126;24.752;2022-09-28T05:23:12;98602.81;;;20.53;69.63
65175;BME280;51761;42.126;24.752;2022-09-28T05:25:38;98604.06;;;21.40;66.17
65175;BME280;51761;42.126;24.752;2022-09-28T05:28:04;98602.38;;;22.34;61.98
65175;BME280;51761;42.126;24.752;2022-09-28T05:30:30;98599.72;;;22.82;59.81
65175;BME280;51761;42.126;24.752;2022-09-28T05:32:55;98540.28;;;22.44;58.76
65175;BME280;51761;42.126;24.752;2022-09-28T05:35:21;98593.94;;;22.63;59.16
65175;BME280;51761;42.126;24.752;2022-09-28T05:37:46;98617.94;;;23.03;58.53
65175;BME280;51761;42.126;24.752;2022-09-28T05:40:12;98618.81;;;23.70;56.98
65175;BME280;51761;42.126;24.752;2022-09-28T05:42:38;98626.47;;;24.23;54.95
65175;BME280;51761;42.126;24.752;2022-09-28T05:45:03;98627.47;;;24.80;53.13
65175;BME280;51761;42.126;24.752;2022-09-28T05:47:30;98626.25;;;25.39;51.62
65175;BME280;51761;42.126;24.752;2022-09-28T05:49:56;98626.28;;;25.91;49.94
65175;BME280;51761;42.126;24.752;2022-09-28T05:52:21;98598.63;;;26.06;48.51
65175;BME280;51761;42.126;24.752;2022-09-28T05:54:47;98636.84;;;26.68;47.29
65175;BME280;51761;42.126;24.752;2022-09-28T05:57:13;98629.53;;;26.80;47.04
65175;BME280;51761;42.126;24.752;2022-09-28T05:59:39;98637.28;;;26.72;47.14
65175;BME280;51761;42.126;24.752;2022-09-28T06:02:05;98635.69;;;27.04;46.26
65175;BME280;51761;42.126;24.752;2022-09-28T06:04:31;98591.31;;;26.98;45.90
65175;BME280;51761;42.126;24.752;2022-09-28T06:06:57;98606.44;;;27.67;44.49
65175;BME280;51761;42.126;24.752;2022-09-28T06:09:23;98633.84;;;28.39;42.88
65175;BME280;51761;42.126;24.752;2022-09-28T06:11:49;98638.06;;;28.88;42.03
65175;BME280;51761;42.126;24.752;2022-09-28T06:14:15;98635.50;;;28.27;43.20
65175;BME280;51761;42.126;24.752;2022-09-28T06:16:41;98639.75;;;27.98;43.45
65175;BME280;51761;42.126;24.752;2022-09-28T06:19:07;98632.41;;;27.62;44.30
65175;BME280;51761;42.126;24.752;2022-09-28T06:21:33;98633.84;;;28.39;42.23
65175;BME280;51761;42.126;24.752;2022-09-28T06:24:03;98610.22;;;27.90;42.35
65175;BME280;51761;42.126;24.752;2022-09-28T06:26:28;98643.38;;;27.70;43.14
65175;BME280;51761;42.126;24.752;2022-09-28T06:28:54;98638.44;;;28.06;42.08
65175;BME280;51761;42.126;24.752;2022-09-28T06:31:19;98636.88;;;28.33;42.24
65175;BME280;51761;42.126;24.752;2022-09-28T06:33:51;98636.34;;;28.07;42.21
65175;BME280;51761;42.126;24.752;2022-09-28T06:36:17;98609.00;;;28.41;41.08
65175;BME280;51761;42.126;24.752;2022-09-28T06:38:44;98650.97;;;27.88;42.53
65175;BME280;51761;42.126;24.752;2022-09-28T06:41:10;98657.13;;;27.44;43.09
65175;BME280;51761;42.126;24.752;2022-09-28T06:43:36;98663.06;;;27.94;42.59
65175;BME280;51761;42.126;24.752;2022-09-28T06:46:04;98633.16;;;28.18;43.64
65175;BME280;51761;42.126;24.752;2022-09-28T06:48:30;98661.44;;;28.42;42.18
65175;BME280;51761;42.126;24.752;2022-09-28T06:50:58;98646.38;;;28.21;43.47
65175;BME280;51761;42.126;24.752;2022-09-28T06:53:23;98641.44;;;28.72;41.66
65175;BME280;51761;42.126;24.752;2022-09-28T06:55:49;98666.06;;;28.88;41.54
65175;BME280;51761;42.126;24.752;2022-09-28T06:58:19;98649.69;;;28.75;41.09
65175;BME280;51761;42.126;24.752;2022-09-28T07:00:45;98656.28;;;28.91;41.33
65175;BME280;51761;42.126;24.752;2022-09-28T07:03:15;98625.19;;;28.74;41.29
65175;BME280;51761;42.126;24.752;2022-09-28T07:05:43;98640.53;;;28.84;41.77
65175;BME280;51761;42.126;24.752;2022-09-28T07:08:09;98638.47;;;29.00;41.36
65175;BME280;51761;42.126;24.752;2022-09-28T07:10:40;98615.00;;;28.66;41.45
65175;BME280;51761;42.126;24.752;2022-09-28T07:13:06;98628.16;;;29.19;40.80
65175;BME280;51761;42.126;24.752;2022-09-28T07:15:32;98629.31;;;29.09;40.60
65175;BME280;51761;42.126;24.752;2022-09-28T07:17:59;98637.00;;;29.21;40.71
65175;BME280;51761;42.126;24.752;2022-09-28T07:20:25;98645.78;;;28.93;41.26
65175;BME280;51761;42.126;24.752;2022-09-28T07:22:55;98637.72;;;28.99;41.45
65175;BME280;51761;42.126;24.752;2022-09-28T07:25:22;98627.78;;;29.08;41.95
65175;BME280;51761;42.126;24.752;2022-09-28T07:27:48;98632.78;;;29.74;40.06
65175;BME280;51761;42.126;24.752;2022-09-28T07:30:14;98629.53;;;29.70;40.08
65175;BME280;51761;42.126;24.752;2022-09-28T07:32:40;98635.66;;;29.67;40.26
65175;BME280;51761;42.126;24.752;2022-09-28T07:35:06;98627.22;;;29.84;39.54
65175;BME280;51761;42.126;24.752;2022-09-28T07:37:36;98635.25;;;30.08;39.73
65175;BME280;51761;42.126;24.752;2022-09-28T07:40:07;98632.50;;;30.17;39.07
65175;BME280;51761;42.126;24.752;2022-09-28T07:42:51;98605.53;;;29.75;39.23
65175;BME280;51761;42.126;24.752;2022-09-28T07:45:18;98628.44;;;30.28;38.70
65175;BME280;51761;42.126;24.752;2022-09-28T07:47:55;98629.84;;;30.66;38.05
65175;BME280;51761;42.126;24.752;2022-09-28T07:50:21;98630.28;;;30.55;38.36
65175;BME280;51761;42.126;24.752;2022-09-28T07:52:47;98628.75;;;30.54;38.41
65175;BME280;51761;42.126;24.752;2022-09-28T07:55:13;98626.13;;;30.34;38.19
65175;BME280;51761;42.126;24.752;2022-09-28T07:57:39;98634.91;;;30.51;37.17
65175;BME280;51761;42.126;24.752;2022-09-28T08:00:05;98633.16;;;30.55;37.08
65175;BME280;51761;42.126;24.752;2022-09-28T08:02:34;98559.84;;;30.34;36.94
65175;BME280;51761;42.126;24.752;2022-09-28T08:05:01;98619.47;;;30.71;37.73
65175;BME280;51761;42.126;24.752;2022-09-28T08:07:27;98627.25;;;30.85;36.98
65175;BME280;51761;42.126;24.752;2022-09-28T08:09:52;98628.78;;;30.86;37.26
65175;BME280;51761;42.126;24.752;2022-09-28T08:12:18;98625.56;;;30.82;37.43
65175;BME280;51761;42.126;24.752;2022-09-28T08:14:46;98609.31;;;30.94;37.63
65175;BME280;51761;42.126;24.752;2022-09-28T08:17:11;98603.59;;;30.87;38.07
65175;BME280;51761;42.126;24.752;2022-09-28T08:19:37;98626.75;;;31.11;37.77
65175;BME280;51761;42.126;24.752;2022-09-28T08:22:21;98633.81;;;31.66;36.67
65175;BME280;51761;42.126;24.752;2022-09-28T08:24:47;98636.03;;;31.75;35.15
65175;BME280;51761;42.126;24.752;2022-09-28T08:27:14;98638.06;;;31.65;36.25
65175;BME280;51761;42.126;24.752;2022-09-28T08:29:41;98640.53;;;31.69;36.06
65175;BME280;51761;42.126;24.752;2022-09-28T08:32:07;98636.66;;;31.49;35.57
65175;BME280;51761;42.126;24.752;2022-09-28T08:34:38;98627.13;;;31.32;36.17
65175;BME280;51761;42.126;24.752;2022-09-28T08:37:04;98619.31;;;31.49;36.02
65175;BME280;51761;42.126;24.752;2022-09-28T08:39:30;98640.16;;;31.40;36.01
65175;BME280;51761;42.126;24.752;2022-09-28T08:44:53;98618.19;;;31.45;35.86
65175;BME280;51761;42.126;24.752;2022-09-28T08:47:31;98630.00;;;31.81;35.43
65175;BME280;51761;42.126;24.752;2022-09-28T08:50:22;98629.16;;;31.88;35.06
65175;BME280;51761;42.126;24.752;2022-09-28T08:52:55;98630.63;;;31.96;34.26
65175;BME280;51761;42.126;24.752;2022-09-28T08:55:35;98631.28;;;31.70;35.17
65175;BME280;51761;42.126;24.752;2022-09-28T08:58:17;98623.47;;;31.56;35.04
65175;BME280;51761;42.126;24.752;2022-09-28T09:00:48;98599.28;;;31.51;35.24
65175;BME280;51761;42.126;24.752;2022-09-28T09:03:28;98623.16;;;31.76;33.48
65175;BME280;51761;42.126;24.752;2022-09-28T09:06:08;98625.56;;;31.38;34.32
65175;BME280;51761;42.126;24.752;2022-09-28T09:09:09;98622.28;;;31.59;34.75
65175;BME280;51761;42.126;24.752;2022-09-28T09:14:37;98617.25;;;32.42;32.18
65175;BME280;51761;42.126;24.752;2022-09-28T09:19:54;98621.91;;;32.38;32.11
65175;BME280;51761;42.126;24.752;2022-09-28T09:22:40;98578.66;;;31.79;32.14
65175;BME280;51761;42.126;24.752;2022-09-28T09:25:19;98629.97;;;32.05;32.36
65175;BME280;51761;42.126;24.752;2022-09-28T09:30:19;98615.38;;;31.13;33.92
65175;BME280;51761;42.126;24.752;2022-09-28T09:33:06;98598.25;;;31.15;33.63
65175;BME280;51761;42.126;24.752;2022-09-28T09:49:28;98609.56;;;32.71;32.27
65175;BME280;51761;42.126;24.752;2022-09-28T09:52:01;98608.13;;;33.15;30.53
65175;BME280;51761;42.126;24.752;2022-09-28T09:54:35;98604.97;;;32.94;31.51
65175;BME280;51761;42.126;24.752;2022-09-28T09:57:16;98601.56;;;33.15;31.42
65175;BME280;51761;42.126;24.752;2022-09-28T09:59:42;98599.56;;;33.08;30.69
65175;BME280;51761;42.126;24.752;2022-09-28T10:02:24;98579.56;;;33.02;29.36
65175;BME280;51761;42.126;24.752;2022-09-28T10:04:58;98587.41;;;33.09;30.25
65175;BME280;51761;42.126;24.752;2022-09-28T10:07:36;98594.94;;;32.95;29.90
65175;BME280;51761;42.126;24.752;2022-09-28T10:13:04;98593.22;;;31.64;31.07
65175;BME280;51761;42.126;24.752;2022-09-28T10:15:31;98593.66;;;31.36;33.31
65175;BME280;51761;42.126;24.752;2022-09-28T10:18:01;98603.19;;;30.90;34.70
65175;BME280;51761;42.126;24.752;2022-09-28T10:20:32;98592.25;;;30.57;35.25
65175;BME280;51761;42.126;24.752;2022-09-28T10:22:59;98577.91;;;29.65;35.91
65175;BME280;51761;42.126;24.752;2022-09-28T10:25:29;98586.94;;;29.17;37.49
65175;BME280;51761;42.126;24.752;2022-09-28T10:27:58;98568.78;;;28.49;38.04
65175;BME280;51761;42.126;24.752;2022-09-28T10:30:25;98590.84;;;28.61;38.01
65175;BME280;51761;42.126;24.752;2022-09-28T10:32:53;98583.47;;;28.88;37.70
65175;BME280;51761;42.126;24.752;2022-09-28T10:35:40;98571.00;;;29.01;37.62
65175;BME280;51761;42.126;24.752;2022-09-28T10:38:15;98581.69;;;28.70;37.68
65175;BME280;51761;42.126;24.752;2022-09-28T10:40:43;98575.75;;;28.25;38.94
65175;BME280;51761;42.126;24.752;2022-09-28T10:43:30;98572.16;;;27.89;40.14
65175;BME280;51761;42.126;24.752;2022-09-28T10:46:04;98574.75;;;28.08;40.29
65175;BME280;51761;42.126;24.752;2022-09-28T10:48:52;98558.88;;;28.14;39.31
65175;BME280;51761;42.126;24.752;2022-09-28T10:51:19;98561.69;;;28.42;38.70
65175;BME280;51761;42.126;24.752;2022-09-28T10:53:59;98557.38;;;28.86;38.03
65175;BME280;51761;42.126;24.752;2022-09-28T10:56:34;98526.91;;;28.68;38.69
65175;BME280;51761;42.126;24.752;2022-09-28T10:59:00;98553.72;;;28.78;38.80
65175;BME280;51761;42.126;24.752;2022-09-28T11:01:31;98513.50;;;28.78;36.23
65175;BME280;51761;42.126;24.752;2022-09-28T11:04:03;98513.91;;;29.20;36.64
65175;BME280;51761;42.126;24.752;2022-09-28T11:06:35;98525.59;;;29.37;36.36
65175;BME280;51761;42.126;24.752;2022-09-28T11:09:25;98528.34;;;29.96;34.95
65175;BME280;51761;42.126;24.752;2022-09-28T11:11:51;98527.47;;;30.18;35.32
65175;BME280;51761;42.126;24.752;2022-09-28T11:14:36;98514.75;;;30.29;34.70
65175;BME280;51761;42.126;24.752;2022-09-28T11:17:29;98528.91;;;30.42;34.67
65175;BME280;51761;42.126;24.752;2022-09-28T11:20:00;98526.13;;;30.59;34.63
65175;BME280;51761;42.126;24.752;2022-09-28T11:22:42;98508.69;;;30.81;34.52
65175;BME280;51761;42.126;24.752;2022-09-28T11:25:30;98506.53;;;31.13;35.12
65175;BME280;51761;42.126;24.752;2022-09-28T11:27:58;98510.28;;;31.23;34.05
65175;BME280;51761;42.126;24.752;2022-09-28T11:33:11;98505.03;;;31.46;33.35
65175;BME280;51761;42.126;24.752;2022-09-28T11:44:45;98459.31;;;31.43;33.15
65175;BME280;51761;42.126;24.752;2022-09-28T11:49:43;98489.56;;;31.17;32.26
65175;BME280;51761;42.126;24.752;2022-09-28T11:52:17;98488.41;;;31.37;33.22
65175;BME280;51761;42.126;24.752;2022-09-28T11:54:58;98487.25;;;31.74;33.11
65175;BME280;51761;42.126;24.752;2022-09-28T11:57:37;98478.41;;;31.72;32.11
65175;BME280;51761;42.126;24.752;2022-09-28T12:00:10;98476.94;;;31.30;33.21
65175;BME280;51761;42.126;24.752;2022-09-28T12:05:54;98440.72;;;31.53;32.71
65175;BME280;51761;42.126;24.752;2022-09-28T12:08:25;98466.53;;;31.85;32.34
65175;BME280;51761;42.126;24.752;2022-09-28T12:11:04;98450.81;;;31.96;31.50
65175;BME280;51761;42.126;24.752;2022-09-28T12:13:37;98441.75;;;31.82;30.01
65175;BME280;51761;42.126;24.752;2022-09-28T12:16:23;98457.72;;;32.10;29.96
65175;BME280;51761;42.126;24.752;2022-09-28T12:19:43;98459.22;;;32.54;30.07
65175;BME280;51761;42.126;24.752;2022-09-28T12:22:17;98447.50;;;32.52;28.69
65175;BME280;51761;42.126;24.752;2022-09-28T12:24:47;98451.53;;;32.66;29.33
65175;BME280;51761;42.126;24.752;2022-09-28T12:27:36;98446.44;;;32.48;30.70
65175;BME280;51761;42.126;24.752;2022-09-28T12:38:27;98448.31;;;32.88;30.08
65175;BME280;51761;42.126;24.752;2022-09-28T12:41:07;98419.22;;;32.60;30.55
65175;BME280;51761;42.126;24.752;2022-09-28T12:43:47;98435.28;;;32.71;29.61
65175;BME280;51761;42.126;24.752;2022-09-28T12:51:46;98431.25;;;32.21;29.83
65175;BME280;51761;42.126;24.752;2022-09-28T13:13:43;98443.13;;;31.06;29.51
65175;BME280;51761;42.126;24.752;2022-09-28T13:16:40;98446.66;;;30.97;29.42
65175;BME280;51761;42.126;24.752;2022-09-28T13:19:13;98438.50;;;31.03;29.09
65175;BME280;51761;42.126;24.752;2022-09-28T13:24:32;98420.25;;;30.84;29.22
65175;BME280;51761;42.126;24.752;2022-09-28T13:27:14;98438.59;;;30.96;28.50
65175;BME280;51761;42.126;24.752;2022-09-28T13:29:42;98430.88;;;30.98;29.41
65175;BME280;51761;42.126;24.752;2022-09-28T13:32:08;98429.81;;;31.11;30.01
65175;BME280;51761;42.126;24.752;2022-09-28T13:34:37;98409.72;;;30.79;30.47
65175;BME280;51761;42.126;24.752;2022-09-28T13:52:48;98425.88;;;30.50;30.68
65175;BME280;51761;42.126;24.752;2022-09-28T13:59:02;98403.38;;;30.31;30.98
65175;BME280;51761;42.126;24.752;2022-09-28T14:01:19;98419.88;;;30.31;31.70
65175;BME280;51761;42.126;24.752;2022-09-28T14:04:15;98418.00;;;30.26;31.98
65175;BME280;51761;42.126;24.752;2022-09-28T14:06:49;98430.22;;;30.34;31.83
65175;BME280;51761;42.126;24.752;2022-09-28T14:12:01;98419.47;;;30.10;32.70
65175;BME280;51761;42.126;24.752;2022-09-28T14:14:48;98424.88;;;29.98;33.10
65175;BME280;51761;42.126;24.752;2022-09-28T14:19:51;98427.09;;;29.75;32.67
65175;BME280;51761;42.126;24.752;2022-09-28T14:30:31;98402.13;;;29.16;33.29
65175;BME280;51761;42.126;24.752;2022-09-28T14:33:34;98427.63;;;29.12;33.34
65175;BME280;51761;42.126;24.752;2022-09-28T14:36:04;98423.97;;;29.19;32.88
65175;BME280;51761;42.126;24.752;2022-09-28T14:38:43;98433.75;;;29.16;32.99
65175;BME280;51761;42.126;24.752;2022-09-28T14:54:41;98413.13;;;28.88;32.59
65175;BME280;51761;42.126;24.752;2022-09-28T14:57:24;98429.41;;;28.93;32.67
65175;BME280;51761;42.126;24.752;2022-09-28T14:59:50;98432.25;;;28.85;32.53
65175;BME280;51761;42.126;24.752;2022-09-28T15:02:19;98432.09;;;28.68;33.19
65175;BME280;51761;42.126;24.752;2022-09-28T15:07:51;98434.19;;;28.45;33.00
65175;BME280;51761;42.126;24.752;2022-09-28T15:10:31;98410.94;;;28.13;33.09
65175;BME280;51761;42.126;24.752;2022-09-28T15:12:59;98436.78;;;28.21;33.58
65175;BME280;51761;42.126;24.752;2022-09-28T15:15:30;98430.66;;;28.09;33.28
65175;BME280;51761;42.126;24.752;2022-09-28T15:18:13;98429.63;;;27.92;34.05
65175;BME280;51761;42.126;24.752;2022-09-28T15:20:44;98433.63;;;27.81;34.37
65175;BME280;51761;42.126;24.752;2022-09-28T15:25:54;98441.81;;;27.70;34.30
65175;BME280;51761;42.126;24.752;2022-09-28T15:28:21;98407.19;;;27.33;34.74
65175;BME280;51761;42.126;24.752;2022-09-28T15:30:48;98417.53;;;27.36;35.06
65175;BME280;51761;42.126;24.752;2022-09-28T15:33:25;98415.91;;;27.20;35.90
65175;BME280;51761;42.126;24.752;2022-09-28T15:36:15;98404.13;;;27.03;36.60
65175;BME280;51761;42.126;24.752;2022-09-28T15:41:29;98447.41;;;27.12;37.25
65175;BME280;51761;42.126;24.752;2022-09-28T15:44:06;98456.59;;;27.18;37.56
65175;BME280;51761;42.126;24.752;2022-09-28T15:46:33;98450.69;;;26.96;37.98
65175;BME280;51761;42.126;24.752;2022-09-28T15:49:00;98461.19;;;26.93;37.99
65175;BME280;51761;42.126;24.752;2022-09-28T15:51:27;98453.31;;;26.86;38.52
65175;BME280;51761;42.126;24.752;2022-09-28T15:56:25;98461.97;;;26.73;39.50